• Join FlightAware (Why Join?)
  • Login
  • US Flag 
06:23AM EDT


 

Airport Tracker/Info


-or-


 

Live Flight TrackerFlight Track Log ✈ SWA1035 ✈ 22-Jun-2013 ✈ KLAX - KSMF

Flight Track Log - Related Links

Times and Time Zones

All times are in EDT time to prevent confusion due to time zone crossing. See the SWA1035 flight status page for this flight to view local times or setup timezone preferences in your user account.

Time Position Orientation Groundspeed Altitude Reporting Facility
EDT Latitude Longitude Course Direction KTS MPH feet Rate Location/Type
07:18PM 33.9333 -118.5667 256° West 254 292 4,300  Level Southern California TRACON
07:20PM 33.9739 -118.6767 294° West 284 327 8,300 1,800 Climbing Los Angeles Center
07:21PM 34.0522 -118.6836 356° North 285 328 8,900 420 Climbing Los Angeles Center
07:22PM 34.1250 -118.6503 21° North 282 325 9,200 1,500 Climbing Los Angeles Center
07:23PM 34.2672 -118.6000 North  Level FlightAware Approximate
07:23PM 34.2067 -118.6536 358° North 293 337 12,000  Level Los Angeles Center
07:24PM 34.2919 -118.6611 356° North 306 352 14,800 2,100 Climbing Los Angeles Center
07:25PM 34.3967 -118.6722 355° North 374 430 16,400 2,100 Climbing Los Angeles Center
07:26PM 34.5022 -118.7111 343° North 397 457 19,200 2,580 Climbing Los Angeles Center
07:27PM 34.6069 -118.7642 337° Northwest 408 470 21,700 2,580 Climbing Los Angeles Center
07:28PM 34.7372 -118.8297 338° Northwest 422 486 24,500 2,400 Climbing Los Angeles Center
07:29PM 34.8511 -118.8836 339° North 437 503 26,700 1,920 Climbing Los Angeles Center
07:30PM 34.9650 -118.9344 340° North 440 506 28,500 1,680 Climbing Los Angeles Center
07:31PM 35.0617 -118.9778 340° North 455 524 30,200 2,040 Climbing Los Angeles Center
07:32PM 35.2047 -119.0406 340° North 458 527 32,800 2,220 Climbing Los Angeles Center
07:33PM 35.3208 -119.0936 340° North 451 519 34,800 1,740 Climbing Los Angeles Center
07:34PM 35.4311 -119.1436 340° North 435 501 36,500 1,380 Climbing Los Angeles Center
07:35PM 35.5667 -119.2056 340° North 437 503 37,700 1,020 Climbing Los Angeles Center
07:36PM 35.6756 -119.2681 335° Northwest 436 502 38,600 1,080 Climbing Los Angeles Center
07:37PM 35.7822 -119.3342 333° Northwest 435 501 40,000 780 Climbing Los Angeles Center
07:38PM 35.8661 -119.3842 334° Northwest 429 494 40,000  Level Oakland Center
07:39PM 35.9714 -119.4486 334° Northwest 424 488 40,000  Level Oakland Center
07:40PM 36.0756 -119.5106 334° Northwest 420 483 40,000  Level Oakland Center
07:41PM 36.1808 -119.5750 334° Northwest 424 488 40,000  Level Oakland Center
07:42PM 36.2861 -119.6411 333° Northwest 425 489 40,000  Level Oakland Center
07:43PM 36.3925 -119.7056 334° Northwest 426 490 40,000  Level Oakland Center
07:44PM 36.5183 -119.7847 333° Northwest 425 489 40,000  Level Oakland Center
07:45PM 36.6250 -119.8508 334° Northwest 427 491 40,000  Level Oakland Center
07:46PM 36.7319 -119.9156 334° Northwest 429 494 40,000 -660 Level Oakland Center
07:47PM 36.8375 -119.9814 333° Northwest 426 490 38,700 -1,860 Descending Oakland Center
07:48PM 36.9419 -120.0475 333° Northwest 422 486 36,300 -2,640 Descending Oakland Center
07:49PM 37.0506 -120.1144 334° Northwest 434 499 33,400 -3,180 Descending Oakland Center
07:50PM 37.1761 -120.1953 333° Northwest 450 518 29,800 -3,120 Descending Oakland Center
07:51PM 37.2908 -120.2653 334° Northwest 456 525 27,100 -2,580 Descending Oakland Center
07:52PM 37.3992 -120.3344 333° Northwest 441 507 24,600 -1,860 Descending Oakland Center
07:53PM 37.4950 -120.4181 325° Northwest 421 484 23,400 -1,140 Descending Oakland Center
07:54PM 37.5839 -120.5097 321° Northwest 415 478 22,400 -1,020 Descending Oakland Center
07:55PM 37.6833 -120.6000 324° Northwest 404 465 21,300 -1,080 Descending Northern Cal TRACON
07:56PM 37.7667 -120.7000 317° Northwest 398 458 20,200 -1,020 Descending Northern Cal TRACON
07:57PM 37.8500 -120.7833 322° Northwest 391 450 19,300 -1,020 Descending Northern Cal TRACON
07:58PM 37.9333 -120.8667 322° Northwest 389 448 18,200 -1,080 Descending Northern Cal TRACON
07:59PM 38.0167 -120.9333 328° Northwest 387 445 17,300 -1,020 Descending Northern Cal TRACON
08:00PM 38.0833 -121.0167 315° West 383 441 16,300 -1,020 Descending Northern Cal TRACON
08:01PM 38.1500 -121.1167 310° West 372 428 15,300 -1,260 Descending Northern Cal TRACON
08:02PM 38.2167 -121.2167 310° West 367 422 13,800 -1,680 Descending Northern Cal TRACON
08:03PM 38.2833 -121.3167 310° West 361 415 12,000 -1,440 Descending Northern Cal TRACON
08:04PM 38.3500 -121.4167 310° West 355 409 11,000 -1,020 Descending Northern Cal TRACON
08:05PM 38.4167 -121.5167 310° West 328 377 9,900 -840 Descending Northern Cal TRACON
08:06PM 38.4833 -121.5833 322° Northwest 290 334 9,300 -960 Descending Northern Cal TRACON
08:07PM 38.5500 -121.6167 339° North 250 288 8,000 -1,380 Descending Northern Cal TRACON
08:08PM 38.6000 -121.6667 322° Northwest 240 276 6,600 -1,560 Descending Northern Cal TRACON
08:09PM 38.6667 -121.6667 360° North 224 258 4,900 -1,800 Descending Northern Cal TRACON
08:10PM 38.7333 -121.6667 360° North 237 273 3,000 -960 Descending Northern Cal TRACON
08:11PM 38.7833 -121.6667 360° North 197 227 3,000 -180 Level Northern Cal TRACON
08:12PM 38.8167 -121.6333 38° Northeast 198 228 2,700 -600 Descending Northern Cal TRACON
08:13PM 38.8000 -121.6000 123° Southeast 162 186 1,800 -720 Descending Northern Cal TRACON
08:14PM 38.7667 -121.6000 180° South 147 169 1,200 -720 Descending Northern Cal TRACON
08:15PM 38.7167 -121.6000 180° South 143 165 400 -840 Descending Northern Cal TRACON